Terminal Aerodrome Forecast
Issued by NWS Bismarck, ND

Home | Current Version | Previous Version | Graphics & Text | Print | Product List | Glossary On
Versions: 1 2 3 4 5 6 7 8 9 10 11 12 13 14 15 16
000
FTUS43 KBIS 141700
TAFBIS
TAF
KBIS 141727Z 1418/1518 33012KT P6SM BKN035
      TEMPO 1418/1421 6SM -SHSN OVC025
     FM142100 33010KT P6SM SCT040
     FM150100 VRB05KT P6SM SKC
     FM151300 14012KT P6SM BKN070=

USA.gov is the U.S. government's official web portal to all federal, state and local government web resources and services.